createdAt,value
2018-02-09T00:02:16.254Z,35.42
2018-02-09T00:04:50.171Z,37.15
2018-02-09T00:07:23.983Z,35.17
2018-02-09T00:10:04.484Z,34.45
2018-02-09T00:12:42.510Z,32.28
2018-02-09T00:15:20.488Z,36.83
2018-02-09T00:18:03.188Z,36.00
2018-02-09T00:20:36.269Z,33.22
2018-02-09T00:23:11.959Z,35.88
2018-02-09T00:25:50.660Z,33.55
2018-02-09T00:28:30.310Z,35.40
2018-02-09T00:31:10.794Z,36.65
2018-02-09T00:33:49.913Z,34.58
2018-02-09T00:36:28.775Z,36.10
2018-02-09T00:39:03.724Z,31.25
2018-02-09T00:41:46.238Z,33.13
2018-02-09T00:44:28.007Z,30.90
2018-02-09T00:47:07.498Z,30.83
2018-02-09T00:49:50.059Z,32.88
2018-02-09T00:52:28.390Z,31.45
2018-02-09T00:55:09.636Z,32.08
2018-02-09T00:57:49.776Z,31.98
2018-02-09T01:00:28.893Z,31.80
2018-02-09T01:03:08.214Z,32.95
2018-02-09T01:05:47.689Z,29.60
2018-02-09T01:08:27.446Z,30.12
2018-02-09T01:11:06.691Z,28.92
2018-02-09T01:13:44.916Z,31.73
2018-02-09T01:16:26.404Z,32.20
2018-02-09T01:19:05.027Z,29.27
2018-02-09T01:21:43.920Z,32.90
2018-02-09T01:24:17.813Z,30.62
2018-02-09T01:26:58.884Z,30.35
2018-02-09T01:29:37.231Z,28.42
2018-02-09T01:32:18.052Z,31.33
2018-02-09T01:34:57.551Z,28.90
2018-02-09T01:37:37.286Z,31.50
2018-02-09T01:40:14.687Z,29.85
2018-02-09T01:42:53.055Z,30.42
2018-02-09T01:45:32.902Z,30.00
2018-02-09T01:48:13.099Z,29.75
2018-02-09T01:50:50.862Z,30.08
2018-02-09T01:53:30.938Z,31.70
2018-02-09T01:56:12.311Z,31.83
2018-02-09T01:58:51.684Z,30.95
2018-02-09T02:01:30.301Z,33.67
2018-02-09T02:04:11.840Z,31.27
2018-02-09T02:06:50.297Z,30.80
2018-02-09T02:09:31.694Z,30.33
2018-02-09T02:12:11.037Z,27.42
2018-02-09T02:14:54.304Z,25.15
2018-02-09T02:17:28.009Z,30.77
2018-02-09T02:20:02.405Z,33.20
2018-02-09T02:22:41.186Z,30.37
2018-02-09T02:25:20.024Z,29.50
2018-02-09T02:28:00.898Z,28.08
2018-02-09T02:30:46.646Z,27.40
2018-02-09T02:33:28.467Z,26.20
2018-02-09T02:36:05.781Z,26.98
2018-02-09T02:38:46.625Z,26.80
2018-02-09T02:41:25.592Z,28.45
2018-02-09T02:44:04.721Z,25.80
2018-02-09T02:46:44.492Z,28.52
2018-02-09T02:49:24.984Z,27.27
2018-02-09T02:52:03.872Z,27.05
2018-02-09T02:54:42.562Z,28.95
2018-02-09T02:57:18.228Z,26.62
2018-02-09T02:59:50.748Z,28.15
2018-02-09T03:02:29.322Z,28.48
2018-02-09T03:05:13.929Z,28.85
2018-02-09T03:07:47.427Z,25.58
2018-02-09T03:10:25.722Z,29.08
2018-02-09T03:13:05.914Z,26.77
2018-02-09T03:15:45.378Z,28.33
2018-02-09T03:18:25.960Z,29.77
2018-02-09T03:21:03.743Z,29.25
2018-02-09T03:23:41.425Z,30.45
2018-02-09T03:26:20.536Z,29.23
2018-02-09T03:29:01.404Z,30.02
2018-02-09T03:31:42.389Z,30.95
2018-02-09T03:34:23.234Z,29.30
2018-02-09T03:36:56.968Z,30.15
2018-02-09T03:39:37.839Z,32.42
2018-02-09T03:42:17.014Z,30.58
2018-02-09T03:44:56.123Z,30.55
2018-02-09T03:47:33.532Z,33.30
2018-02-09T03:50:16.463Z,33.03
2018-02-09T03:52:54.379Z,33.72
2018-02-09T03:55:33.160Z,35.65
2018-02-09T03:58:12.265Z,33.88
2018-02-09T04:00:50.156Z,34.63
2018-02-09T04:03:29.618Z,34.55
2018-02-09T04:06:08.140Z,33.75
2018-02-09T04:08:48.397Z,32.05
2018-02-09T04:11:30.872Z,31.27
2018-02-09T04:14:10.700Z,33.53
2018-02-09T04:16:51.920Z,33.65
2018-02-09T04:19:33.638Z,29.65
2018-02-09T04:22:17.337Z,30.98
2018-02-09T04:25:00.121Z,29.70
2018-02-09T04:27:39.226Z,33.40
2018-02-09T04:30:20.186Z,29.85
2018-02-09T04:32:57.694Z,31.05
2018-02-09T04:35:37.877Z,28.70
2018-02-09T04:38:21.458Z,33.72
2018-02-09T04:41:03.604Z,28.65
2018-02-09T04:43:45.326Z,26.87
2018-02-09T04:46:26.749Z,28.25
2018-02-09T04:49:10.473Z,30.23
2018-02-09T04:51:56.548Z,27.65
2018-02-09T04:54:35.322Z,29.92
2018-02-09T04:57:13.871Z,30.00
2018-02-09T04:59:53.067Z,31.12
2018-02-09T05:02:30.937Z,32.55
2018-02-09T05:05:09.836Z,29.85
2018-02-09T05:07:49.366Z,31.25
2018-02-09T05:10:22.616Z,33.28
2018-02-09T05:13:01.079Z,31.33
2018-02-09T05:15:40.193Z,28.95
2018-02-09T05:18:18.995Z,31.08
2018-02-09T05:20:57.324Z,28.50
2018-02-09T05:23:35.494Z,30.02
2018-02-09T05:26:15.878Z,29.12
2018-02-09T05:28:55.520Z,31.80
2018-02-09T05:31:34.000Z,33.15
2018-02-09T05:34:11.552Z,35.95
2018-02-09T05:36:49.848Z,35.33
2018-02-09T05:39:30.778Z,34.15
2018-02-09T05:42:10.064Z,35.08
2018-02-09T05:44:48.632Z,39.38
2018-02-09T05:47:27.048Z,36.35
2018-02-09T05:50:04.964Z,37.60
2018-02-09T05:52:46.539Z,36.78
2018-02-09T05:55:26.130Z,36.17
2018-02-09T05:58:00.761Z,36.08
2018-02-09T06:00:35.222Z,37.97
2018-02-09T06:03:11.657Z,37.67
2018-02-09T06:05:46.269Z,35.60
2018-02-09T06:08:20.472Z,33.45
2018-02-09T06:10:55.344Z,35.63
2018-02-09T06:13:33.925Z,38.83
2018-02-09T06:16:12.355Z,36.45
2018-02-09T06:18:52.999Z,36.03
2018-02-09T06:21:33.135Z,34.38
2018-02-09T06:24:12.446Z,39.55
2018-02-09T06:26:54.956Z,39.17
2018-02-09T06:29:33.477Z,38.30
2018-02-09T06:32:13.360Z,36.30
2018-02-09T06:34:56.786Z,37.35
2018-02-09T06:37:38.249Z,38.47
2018-02-09T06:40:18.551Z,39.15
2018-02-09T06:42:57.929Z,40.17
2018-02-09T06:45:38.033Z,36.92
2018-02-09T06:48:17.216Z,39.17
2018-02-09T06:50:56.340Z,39.35
2018-02-09T06:53:35.827Z,38.25
2018-02-09T06:56:18.922Z,41.30
2018-02-09T06:58:56.973Z,37.58
2018-02-09T07:01:36.876Z,38.95
2018-02-09T07:04:20.310Z,42.92
2018-02-09T07:06:59.768Z,40.40
2018-02-09T07:09:39.829Z,41.67
2018-02-09T07:12:21.991Z,40.78
2018-02-09T07:15:05.487Z,39.97
2018-02-09T07:17:39.129Z,34.10
2018-02-09T07:20:19.227Z,37.10
2018-02-09T07:22:59.041Z,40.28
2018-02-09T07:25:39.480Z,39.58
2018-02-09T07:28:14.245Z,40.70
2018-02-09T07:30:53.957Z,38.95
2018-02-09T07:33:32.300Z,42.97
2018-02-09T07:36:10.989Z,39.42
2018-02-09T07:38:47.373Z,41.58
2018-02-09T07:41:23.865Z,46.33
2018-02-09T07:43:58.308Z,42.72
2018-02-09T07:46:33.993Z,39.13
2018-02-09T07:49:14.661Z,42.92
2018-02-09T07:51:54.945Z,39.22
2018-02-09T07:54:36.106Z,42.33
2018-02-09T07:57:15.862Z,38.75
2018-02-09T07:59:52.393Z,42.67
2018-02-09T08:02:31.949Z,41.65
2018-02-09T08:05:12.042Z,37.53
2018-02-09T08:07:52.101Z,40.12
2018-02-09T08:10:31.125Z,40.28
2018-02-09T08:13:12.557Z,39.50
2018-02-09T08:15:47.039Z,35.75
2018-02-09T08:18:27.290Z,35.90
2018-02-09T08:21:09.400Z,35.90
2018-02-09T08:23:48.785Z,36.95
2018-02-09T08:26:30.019Z,36.20
2018-02-09T08:29:05.838Z,32.83
2018-02-09T08:34:19.199Z,35.05
2018-02-09T08:36:55.193Z,31.50
2018-02-09T08:39:34.109Z,31.45
2018-02-09T08:42:11.742Z,35.67
2018-02-09T08:44:50.911Z,36.55
2018-02-09T08:47:28.810Z,36.70
2018-02-09T08:50:05.734Z,35.28
2018-02-09T08:52:44.420Z,33.22
2018-02-09T08:55:22.743Z,36.05
2018-02-09T08:58:04.363Z,36.67
2018-02-09T09:00:43.868Z,34.78
2018-02-09T09:03:22.988Z,28.60
2018-02-09T09:06:02.368Z,37.95
2018-02-09T09:08:42.726Z,40.08
2018-02-09T09:11:23.516Z,36.20
2018-02-09T09:14:04.300Z,35.22
2018-02-09T09:16:45.929Z,38.95
2018-02-09T09:19:27.706Z,38.80
2018-02-09T09:22:08.811Z,36.75
2018-02-09T09:24:41.978Z,34.95
2018-02-09T09:27:21.529Z,32.45
2018-02-09T09:30:00.369Z,36.60
2018-02-09T09:32:41.490Z,37.10
2018-02-09T09:35:17.120Z,37.65
2018-02-09T09:37:58.199Z,34.58
2018-02-09T09:40:37.801Z,39.28
2018-02-09T09:43:19.159Z,37.10
2018-02-09T09:45:57.207Z,35.70
2018-02-09T09:48:42.156Z,36.63
2018-02-09T09:51:17.353Z,36.97
2018-02-09T09:53:58.404Z,35.90
2018-02-09T09:56:41.813Z,38.90
2018-02-09T09:59:21.504Z,39.60
2018-02-09T10:02:01.479Z,36.33
2018-02-09T10:04:35.996Z,40.20
2018-02-09T10:07:18.925Z,37.05
2018-02-09T10:09:53.165Z,38.55
2018-02-09T10:12:28.821Z,39.30
2018-02-09T10:15:03.467Z,41.22
2018-02-09T10:17:41.727Z,41.88
2018-02-09T10:20:26.897Z,39.47
2018-02-09T10:23:05.347Z,39.35
2018-02-09T10:25:49.543Z,39.25
2018-02-09T10:28:28.586Z,40.05
2018-02-09T10:31:10.769Z,41.67
2018-02-09T10:33:47.447Z,41.50
2018-02-09T10:36:32.651Z,37.90
2018-02-09T10:39:15.664Z,41.67
2018-02-09T10:41:57.977Z,43.25
2018-02-09T10:44:41.813Z,37.25
2018-02-09T10:47:24.048Z,42.70
2018-02-09T10:50:04.739Z,42.65
2018-02-09T10:52:49.667Z,42.17
2018-02-09T10:55:30.056Z,43.20
2018-02-09T10:58:15.130Z,43.72
2018-02-09T11:00:53.895Z,43.17
2018-02-09T11:03:32.647Z,44.92
2018-02-09T11:06:15.665Z,41.95
2018-02-09T11:08:56.132Z,42.97
2018-02-09T11:11:39.929Z,41.37
2018-02-09T11:14:24.656Z,42.90
2018-02-09T11:17:08.015Z,43.45
2018-02-09T11:19:51.577Z,44.03
2018-02-09T11:22:34.266Z,41.22
2018-02-09T11:25:14.304Z,43.15
2018-02-09T11:27:50.448Z,36.70
2018-02-09T11:30:30.555Z,38.47
2018-02-09T11:33:12.288Z,37.58
2018-02-09T11:35:51.350Z,35.47
2018-02-09T11:38:26.387Z,38.22
2018-02-09T11:41:08.862Z,36.20
2018-02-09T11:43:49.208Z,38.78
2018-02-09T11:46:32.176Z,36.72
2018-02-09T11:49:13.583Z,39.42
2018-02-09T11:51:54.046Z,38.10
2018-02-09T11:57:14.493Z,37.22
2018-02-09T11:59:53.218Z,39.08
2018-02-09T12:02:35.271Z,38.90
2018-02-09T12:05:16.210Z,36.80
2018-02-09T12:07:53.697Z,35.03
2018-02-09T12:10:32.234Z,38.50
2018-02-09T12:13:13.510Z,36.50
2018-02-09T12:15:54.388Z,37.92
2018-02-09T12:18:31.981Z,37.53
2018-02-09T12:21:16.571Z,34.70
2018-02-09T12:23:57.675Z,36.33
2018-02-09T12:26:39.056Z,34.67
2018-02-09T12:29:24.860Z,35.63
2018-02-09T12:32:01.813Z,36.45
2018-02-09T12:34:40.309Z,35.28
2018-02-09T12:37:23.430Z,34.80
2018-02-09T12:40:03.959Z,33.63
2018-02-09T12:42:41.155Z,35.60
2018-02-09T12:45:24.819Z,33.47
2018-02-09T12:48:08.615Z,36.70
2018-02-09T12:50:43.139Z,34.70
2018-02-09T12:53:22.053Z,35.53
2018-02-09T12:56:00.364Z,35.05
2018-02-09T12:58:43.481Z,34.08
2018-02-09T13:01:23.304Z,35.22
2018-02-09T13:04:06.271Z,35.65
2018-02-09T13:06:41.344Z,35.40
2018-02-09T13:09:22.604Z,37.15
2018-02-09T13:11:59.187Z,32.10
2018-02-09T13:14:45.935Z,36.35
2018-02-09T13:17:29.547Z,33.80
2018-02-09T13:20:11.417Z,33.72
2018-02-09T13:22:58.524Z,34.88
2018-02-09T13:25:40.536Z,33.10
2018-02-09T13:28:24.220Z,31.35
2018-02-09T13:31:03.615Z,33.97
2018-02-09T13:33:46.298Z,33.45
2018-02-09T13:36:25.660Z,33.38
2018-02-09T13:39:03.573Z,33.67
2018-02-09T13:41:42.025Z,31.00
2018-02-09T13:44:21.665Z,32.60
2018-02-09T13:46:55.882Z,35.63
2018-02-09T13:50:49.192Z,35.17
2018-02-09T13:53:30.378Z,34.17
2018-02-09T13:56:08.844Z,35.17
2018-02-09T13:58:57.916Z,33.78
2018-02-09T14:01:32.326Z,32.10
2018-02-09T14:04:14.196Z,33.70
2018-02-09T14:06:56.339Z,34.40
2018-02-09T14:09:39.065Z,34.75
2018-02-09T14:12:15.193Z,35.15
2018-02-09T14:14:54.788Z,33.13
2018-02-09T14:17:39.524Z,34.22
2018-02-09T14:20:14.083Z,37.05
2018-02-09T14:22:57.874Z,31.45
2018-02-09T14:25:36.608Z,33.17
2018-02-09T14:28:11.708Z,32.42
2018-02-09T14:30:53.122Z,32.15
2018-02-09T14:33:38.116Z,31.45
2018-02-09T14:36:12.236Z,32.80
2018-02-09T14:38:50.901Z,33.67
2018-02-09T14:41:32.832Z,31.75
2018-02-09T14:44:10.482Z,31.98
2018-02-09T14:46:52.008Z,34.50
2018-02-09T14:49:34.718Z,33.78
2018-02-09T14:52:15.816Z,31.90
2018-02-09T14:55:00.416Z,35.60
2018-02-09T14:57:36.564Z,30.02
2018-02-09T15:00:16.132Z,30.20
2018-02-09T15:02:56.437Z,31.25
2018-02-09T15:05:31.862Z,31.33
2018-02-09T15:08:10.548Z,29.85
2018-02-09T15:10:53.713Z,29.55
2018-02-09T15:13:33.386Z,31.12
2018-02-09T15:16:09.517Z,28.08
2018-02-09T15:18:48.659Z,28.30
2018-02-09T15:21:33.142Z,27.15
2018-02-09T15:24:13.006Z,26.83
2018-02-09T15:26:57.304Z,25.10
2018-02-09T15:29:38.341Z,25.15
2018-02-09T15:32:21.767Z,29.17
2018-02-09T15:34:59.619Z,26.08
2018-02-09T15:37:41.039Z,24.30
2018-02-09T15:40:24.857Z,26.45
2018-02-09T15:43:06.302Z,24.65
2018-02-09T15:45:46.792Z,25.12
2018-02-09T15:48:32.674Z,23.87
2018-02-09T15:51:07.566Z,26.02
2018-02-09T15:53:50.452Z,23.10
2018-02-09T15:56:31.062Z,21.95
2018-02-09T15:59:15.298Z,21.83
2018-02-09T16:01:53.578Z,24.15
2018-02-09T16:04:39.515Z,23.48
2018-02-09T16:07:21.066Z,24.12
2018-02-09T16:10:02.690Z,21.65
2018-02-09T16:12:45.318Z,20.08
2018-02-09T16:15:23.293Z,20.58
2018-02-09T16:18:01.819Z,20.42
2018-02-09T16:20:45.457Z,23.17
2018-02-09T16:23:19.167Z,19.60
2018-02-09T16:25:53.307Z,21.62
2018-02-09T16:28:36.468Z,20.08
2018-02-09T16:31:10.364Z,21.12
2018-02-09T16:33:49.635Z,19.67
2018-02-09T16:36:27.975Z,20.23
2018-02-09T16:39:10.139Z,19.65
2018-02-09T16:41:51.842Z,21.20
2018-02-09T16:44:26.268Z,20.42
2018-02-09T16:47:06.713Z,19.10
2018-02-09T16:49:46.817Z,19.67
2018-02-09T16:52:24.909Z,20.98
2018-02-09T16:55:02.870Z,17.85
2018-02-09T16:57:47.173Z,20.85
2018-02-09T17:00:25.424Z,19.98
2018-02-09T17:03:00.754Z,18.58
2018-02-09T17:05:40.439Z,17.80
2018-02-09T17:08:22.192Z,18.92
2018-02-09T17:11:00.956Z,20.27
2018-02-09T17:13:39.699Z,17.95
2018-02-09T17:16:19.492Z,16.87
2018-02-09T17:19:00.396Z,16.95
2018-02-09T17:21:39.139Z,20.08
2018-02-09T17:24:20.357Z,17.08
2018-02-09T17:27:05.573Z,18.70
2018-02-09T17:29:44.509Z,20.88
2018-02-09T17:32:23.932Z,17.48
2018-02-09T17:35:00.548Z,18.60
2018-02-09T17:37:41.105Z,17.98
2018-02-09T17:40:23.745Z,17.12
2018-02-09T17:43:04.855Z,18.35
2018-02-09T17:45:46.082Z,16.80
2018-02-09T17:48:25.565Z,17.45
2018-02-09T17:51:04.537Z,17.70
2018-02-09T17:53:44.648Z,17.58
2018-02-09T17:56:28.295Z,19.02
2018-02-09T17:59:10.054Z,17.60
2018-02-09T18:01:49.238Z,17.33
2018-02-09T18:04:32.463Z,19.20
2018-02-09T18:07:11.908Z,18.50
2018-02-09T18:09:56.744Z,18.45
2018-02-09T18:12:38.737Z,17.42
2018-02-09T18:15:22.889Z,17.20
2018-02-09T18:18:08.125Z,16.40
2018-02-09T18:20:51.366Z,16.25
2018-02-09T18:23:36.179Z,21.20
2018-02-09T18:26:19.912Z,15.70
2018-02-09T18:29:00.190Z,17.90
2018-02-09T18:31:41.240Z,21.05
2018-02-09T18:34:19.246Z,17.60
2018-02-09T18:36:55.889Z,18.20
2018-02-09T18:39:41.839Z,21.00
2018-02-09T18:42:20.952Z,17.95
2018-02-09T18:44:58.518Z,18.98
2018-02-09T18:47:38.062Z,16.35
2018-02-09T18:50:18.490Z,17.60
2018-02-09T18:52:57.955Z,20.45
2018-02-09T18:55:33.465Z,17.45
2018-02-09T18:58:08.818Z,18.23
2018-02-09T19:00:48.792Z,21.73
2018-02-09T19:03:28.222Z,18.85
2018-02-09T19:06:04.140Z,18.17
2018-02-09T19:08:44.391Z,18.20
2018-02-09T19:11:27.010Z,17.12
2018-02-09T19:14:09.999Z,19.27
2018-02-09T19:16:49.136Z,18.48
2018-02-09T19:19:28.801Z,17.85
2018-02-09T19:22:03.427Z,18.08
2018-02-09T19:24:41.559Z,17.73
2018-02-09T19:27:20.213Z,18.25
2018-02-09T19:29:59.044Z,21.75
2018-02-09T19:32:34.527Z,19.65
2018-02-09T19:35:14.293Z,21.23
2018-02-09T19:37:52.192Z,20.05
2018-02-09T19:40:27.615Z,20.27
2018-02-09T19:43:05.876Z,20.50
2018-02-09T19:45:44.346Z,19.08
2018-02-09T19:48:19.364Z,18.73
2018-02-09T19:50:55.108Z,20.02
2018-02-09T19:53:30.348Z,18.15
2018-02-09T19:56:07.332Z,17.48
2018-02-09T19:58:49.066Z,20.95
2018-02-09T20:01:29.892Z,19.62
2018-02-09T20:04:08.614Z,20.10
2018-02-09T20:06:47.156Z,18.65
2018-02-09T20:09:24.901Z,20.17
2018-02-09T20:12:02.730Z,19.12
2018-02-09T20:14:42.368Z,20.40
2018-02-09T20:17:21.572Z,20.02
2018-02-09T20:20:02.164Z,18.98
2018-02-09T20:22:42.958Z,18.33
2018-02-09T20:25:21.990Z,21.75
2018-02-09T20:27:59.508Z,21.35
2018-02-09T20:30:37.235Z,18.37
2018-02-09T20:33:15.565Z,18.33
2018-02-09T20:35:54.028Z,20.37
2018-02-09T20:38:32.235Z,19.02
2018-02-09T20:41:11.991Z,18.70
2018-02-09T20:43:50.339Z,17.87
2018-02-09T20:46:25.613Z,17.60
2018-02-09T20:49:04.597Z,19.92
2018-02-09T20:51:43.936Z,20.10
2018-02-09T20:54:21.486Z,18.77
2018-02-09T20:57:00.436Z,16.95
2018-02-09T20:59:35.191Z,19.42
2018-02-09T21:02:17.507Z,20.20
2018-02-09T21:04:57.375Z,20.25
2018-02-09T21:07:37.178Z,19.33
2018-02-09T21:10:14.706Z,18.17
2018-02-09T21:12:56.636Z,19.65
2018-02-09T21:15:30.607Z,19.33
2018-02-09T21:18:11.057Z,19.40
2018-02-09T21:20:48.460Z,17.42
2018-02-09T21:23:26.634Z,19.87
2018-02-09T21:26:05.634Z,22.10
2018-02-09T21:28:45.107Z,20.02
2018-02-09T21:31:19.980Z,20.33
2018-02-09T21:34:00.679Z,18.90
2018-02-09T21:36:39.633Z,19.62
2018-02-09T21:39:18.086Z,19.25
2018-02-09T21:41:57.855Z,17.83
2018-02-09T21:44:36.482Z,18.75
2018-02-09T21:47:15.245Z,18.67
2018-02-09T21:49:56.383Z,17.87
2018-02-09T21:52:34.072Z,20.12
2018-02-09T21:55:14.105Z,17.10
2018-02-09T21:57:52.405Z,19.50
2018-02-09T22:00:27.460Z,19.77
2018-02-09T22:03:07.107Z,20.55
2018-02-09T22:05:40.358Z,19.77
2018-02-09T22:08:20.885Z,19.00
2018-02-09T22:10:54.930Z,18.87
2018-02-09T22:13:35.092Z,21.58
2018-02-09T22:16:15.267Z,19.73
2018-02-09T22:18:52.519Z,18.50
2018-02-09T22:21:33.792Z,20.40
2018-02-09T22:24:12.095Z,19.73
2018-02-09T22:26:50.611Z,20.83
2018-02-09T22:29:30.899Z,20.17
2018-02-09T22:32:12.840Z,21.67
2018-02-09T22:34:51.740Z,19.48
2018-02-09T22:37:30.752Z,22.13
2018-02-09T22:40:09.908Z,22.40
2018-02-09T22:42:50.901Z,22.48
2018-02-09T22:45:30.811Z,18.40
2018-02-09T22:48:06.362Z,20.85
2018-02-09T22:50:41.157Z,22.25
2018-02-09T22:53:14.294Z,18.85
2018-02-09T22:55:47.882Z,21.80
2018-02-09T22:58:22.953Z,20.90
2018-02-09T23:01:01.891Z,18.73
2018-02-09T23:03:41.634Z,19.50
2018-02-09T23:06:15.431Z,22.62
2018-02-09T23:08:56.343Z,21.37
2018-02-09T23:11:36.577Z,20.42
2018-02-09T23:14:16.464Z,22.42
2018-02-09T23:16:57.442Z,21.12
2018-02-09T23:19:36.322Z,23.52
2018-02-09T23:22:16.151Z,21.60
2018-02-09T23:24:50.199Z,22.02
2018-02-09T23:27:30.748Z,22.15
2018-02-09T23:30:09.378Z,22.00
2018-02-09T23:32:51.721Z,22.65
2018-02-09T23:35:29.832Z,24.02
2018-02-09T23:38:09.040Z,21.58
2018-02-09T23:40:49.562Z,23.10
2018-02-09T23:43:26.565Z,21.50
2018-02-09T23:46:07.684Z,25.83
2018-02-09T23:48:46.762Z,23.92
2018-02-09T23:51:27.032Z,23.73
2018-02-09T23:54:05.743Z,24.10
2018-02-09T23:56:41.745Z,23.62
2018-02-09T23:59:19.265Z,23.70
